Branch, Canada
Current Conditions -  °F | °C
As of 10:00 PM on Friday 24 Oct 2014 (Local Time) from CYYT Reporting Station
Drizzle Drizzle  
Wind Chill: 48°   Ceiling: 200
Heat Index: 48°   Visibility: 0.37mi
Dew Point: 48°   Wind: 3mph
Humidity: 100%   Direction: 20°NNE
Pressure: 29.61"   Gusts: NA
Location:  46.88°N, 53.97°W
Report Text: CYYT 250000Z 02003KT 3/8SM R11/1600FT/N -DZ FG VV002 09/09 A2961 RMK FG8 SLP028
Loading
Personal Weather Stations






























Interactive Weather Map
Tropical Storm Tracking
New forecast layout! Learn more

10-Day Weather Forecast

Advertisements
Track Severe Weather on mobile